createdAt,value
2022-08-07T00:02:35.502Z,91.70
2022-08-07T00:04:09.278Z,91.70
2022-08-07T00:06:40.897Z,91.70
2022-08-07T00:09:21.207Z,91.80
2022-08-07T00:11:56.012Z,91.80
2022-08-07T00:14:30.959Z,91.80
2022-08-07T00:17:01.589Z,91.80
2022-08-07T00:19:59.649Z,91.90
2022-08-07T00:22:24.481Z,91.90
2022-08-07T00:25:07.057Z,92.00
2022-08-07T00:27:52.627Z,92.00
2022-08-07T00:30:27.121Z,92.10
2022-08-07T00:32:56.891Z,92.10
2022-08-07T00:35:26.035Z,92.10
2022-08-07T00:37:56.400Z,92.10
2022-08-07T00:40:39.475Z,92.20
2022-08-07T00:43:10.832Z,92.20
2022-08-07T00:46:01.757Z,92.30
2022-08-07T00:48:32.435Z,92.20
2022-08-07T00:51:02.650Z,92.30
2022-08-07T00:53:38.992Z,92.30
2022-08-07T00:56:19.412Z,92.40
2022-08-07T00:58:50.010Z,92.30
2022-08-07T01:01:20.344Z,92.50
2022-08-07T01:03:57.163Z,92.50
2022-08-07T01:06:29.426Z,92.40
2022-08-07T01:09:01.206Z,92.50
2022-08-07T01:12:26.539Z,92.50
2022-08-07T01:14:21.227Z,92.50
2022-08-07T01:16:58.268Z,92.60
2022-08-07T01:19:32.563Z,92.60
2022-08-07T01:22:08.848Z,92.70
2022-08-07T01:24:45.716Z,92.70
2022-08-07T01:27:19.423Z,92.70
2022-08-07T01:29:50.639Z,92.70
2022-08-07T01:32:22.287Z,92.70
2022-08-07T01:34:52.969Z,92.80
2022-08-07T01:37:23.196Z,92.80
2022-08-07T01:39:55.003Z,92.90
2022-08-07T01:42:38.292Z,92.90
2022-08-07T01:45:22.780Z,92.90
2022-08-07T01:48:18.254Z,92.90
2022-08-07T01:50:57.215Z,92.90
2022-08-07T01:53:46.369Z,92.90
2022-08-07T01:56:29.035Z,93.00
2022-08-07T01:59:06.692Z,93.00
2022-08-07T02:01:59.984Z,93.00
2022-08-07T02:04:34.146Z,93.10
2022-08-07T02:07:07.830Z,93.00
2022-08-07T02:09:52.600Z,93.10
2022-08-07T02:12:29.335Z,93.10
2022-08-07T02:15:01.679Z,93.10
2022-08-07T02:17:40.403Z,93.20
2022-08-07T02:20:17.520Z,93.20
2022-08-07T02:22:57.441Z,93.30
2022-08-07T02:26:31.508Z,93.30
2022-08-07T02:28:25.602Z,93.30
2022-08-07T02:31:00.012Z,93.30
2022-08-07T02:34:02.827Z,93.40
2022-08-07T02:36:32.881Z,93.40
2022-08-07T02:39:17.310Z,93.40
2022-08-07T02:42:01.782Z,93.80
2022-08-07T02:44:34.794Z,93.50
2022-08-07T02:47:07.801Z,93.50
2022-08-07T02:49:57.643Z,93.60
2022-08-07T02:52:35.277Z,93.60
2022-08-07T02:55:15.443Z,93.70
2022-08-07T02:58:05.375Z,93.70
2022-08-07T03:00:36.648Z,93.70
2022-08-07T03:03:13.546Z,93.80
2022-08-07T03:05:51.750Z,93.80
2022-08-07T03:08:29.159Z,93.80
2022-08-07T03:11:01.680Z,93.80
2022-08-07T03:13:39.179Z,93.80
2022-08-07T03:16:22.910Z,93.90
2022-08-07T03:18:57.226Z,93.90
2022-08-07T03:21:26.584Z,93.90
2022-08-07T03:24:19.873Z,94.00
2022-08-07T03:26:58.504Z,94.10
2022-08-07T03:29:34.011Z,94.00
2022-08-07T03:32:12.770Z,94.10
2022-08-07T03:34:47.297Z,94.10
2022-08-07T03:37:37.522Z,94.10
2022-08-07T03:40:16.948Z,94.10
2022-08-07T03:42:46.207Z,94.10
2022-08-07T03:45:29.987Z,94.10
2022-08-07T03:48:10.023Z,94.20
2022-08-07T03:50:43.220Z,94.20
2022-08-07T03:54:00.805Z,94.30
2022-08-07T03:56:33.411Z,94.30
2022-08-07T03:59:12.987Z,94.30
2022-08-07T04:01:47.448Z,94.30
2022-08-07T04:04:21.296Z,94.40
2022-08-07T04:06:54.452Z,94.50
2022-08-07T04:09:26.031Z,94.50
2022-08-07T04:12:21.274Z,94.60
2022-08-07T04:15:00.116Z,94.50
2022-08-07T04:18:57.906Z,94.60
2022-08-07T04:20:22.821Z,94.70
2022-08-07T04:23:01.591Z,94.60
2022-08-07T04:25:36.011Z,94.70
2022-08-07T04:28:10.236Z,94.80
2022-08-07T04:30:55.101Z,94.80
2022-08-07T04:33:30.161Z,94.90
2022-08-07T04:36:00.065Z,94.90
2022-08-07T04:38:35.356Z,95.30
2022-08-07T04:41:04.449Z,95.00
2022-08-07T04:44:13.090Z,95.20
2022-08-07T04:46:51.350Z,95.20
2022-08-07T04:49:38.821Z,95.20
2022-08-07T04:52:18.377Z,95.20
2022-08-07T04:54:55.775Z,95.60
2022-08-07T04:58:12.320Z,95.40
2022-08-07T05:00:30.147Z,95.50
2022-08-07T05:03:17.145Z,95.60
2022-08-07T05:06:19.669Z,95.70
2022-08-07T05:09:01.121Z,95.80
2022-08-07T05:11:56.993Z,95.90
2022-08-07T05:14:55.529Z,96.00
2022-08-07T05:17:52.181Z,96.10
2022-08-07T05:20:14.545Z,96.20
2022-08-07T05:22:49.137Z,96.30
2022-08-07T05:25:25.843Z,96.40
2022-08-07T05:28:20.612Z,96.50
2022-08-07T05:30:53.269Z,96.60
2022-08-07T05:33:23.243Z,96.70
2022-08-07T05:35:55.228Z,96.80
2022-08-07T05:39:00.704Z,96.90
2022-08-07T05:41:18.423Z,97.00
2022-08-07T05:44:11.726Z,97.10
2022-08-07T05:46:44.393Z,97.30
2022-08-07T05:49:14.478Z,97.40
2022-08-07T05:51:47.658Z,97.50
2022-08-07T05:54:44.188Z,97.70
2022-08-07T05:57:14.091Z,98.00
2022-08-07T05:59:57.994Z,98.10
2022-08-07T06:02:34.068Z,98.30
2022-08-07T06:05:10.762Z,98.60
2022-08-07T06:08:14.726Z,98.80
2022-08-07T06:10:37.672Z,99.40
2022-08-07T06:13:13.669Z,99.90
2022-08-07T06:15:45.442Z,99.90
2022-08-07T06:18:23.989Z,99.90
2022-08-07T06:22:14.427Z,99.90
2022-08-07T06:24:45.763Z,99.90
2022-08-07T06:26:35.937Z,99.90
2022-08-07T06:29:07.411Z,99.90
2022-08-07T06:31:46.554Z,99.90
2022-08-07T06:34:20.547Z,99.90
2022-08-07T06:36:52.028Z,99.90
2022-08-07T06:40:16.245Z,99.90
2022-08-07T06:42:20.181Z,99.90
2022-08-07T06:45:21.271Z,99.90
2022-08-07T06:47:57.301Z,99.90
2022-08-07T06:50:30.662Z,99.90
2022-08-07T06:53:04.177Z,99.90
2022-08-07T06:55:53.675Z,99.90
2022-08-07T06:58:28.845Z,99.90
2022-08-07T07:01:09.573Z,99.90
2022-08-07T07:03:48.742Z,99.90
2022-08-07T07:06:23.963Z,99.90
2022-08-07T07:08:54.959Z,99.90
2022-08-07T07:12:09.538Z,99.90
2022-08-07T07:14:17.364Z,99.90
2022-08-07T07:16:51.226Z,99.90
2022-08-07T07:19:57.013Z,99.90
2022-08-07T07:22:36.073Z,99.90
2022-08-07T07:26:31.084Z,99.90
2022-08-07T07:28:03.159Z,99.90
2022-08-07T07:30:41.560Z,99.90
2022-08-07T07:33:15.136Z,99.90
2022-08-07T07:36:04.078Z,99.90
2022-08-07T07:38:36.084Z,99.90
2022-08-07T07:41:09.184Z,99.90
2022-08-07T07:44:13.859Z,99.90
2022-08-07T07:46:40.125Z,99.90
2022-08-07T07:50:33.285Z,99.90
2022-08-07T07:52:17.999Z,99.90
2022-08-07T07:54:50.815Z,99.90
2022-08-07T07:57:43.940Z,99.90
2022-08-07T08:00:15.052Z,99.90
2022-08-07T08:03:04.690Z,99.90
2022-08-07T08:05:54.208Z,99.90
2022-08-07T08:08:35.555Z,99.90
2022-08-07T08:11:08.438Z,99.90
2022-08-07T08:13:55.027Z,99.90
2022-08-07T08:16:31.107Z,99.90
2022-08-07T08:19:17.416Z,99.90
2022-08-07T08:22:10.735Z,99.90
2022-08-07T08:25:18.529Z,99.90
2022-08-07T08:27:56.551Z,99.90
2022-08-07T08:30:30.089Z,99.90
2022-08-07T08:33:03.710Z,99.90
2022-08-07T08:35:39.515Z,99.90
2022-08-07T08:38:17.905Z,99.90
2022-08-07T08:40:55.059Z,99.90
2022-08-07T08:43:42.840Z,99.90
2022-08-07T08:46:34.354Z,99.90
2022-08-07T08:49:17.080Z,99.90
2022-08-07T08:52:12.627Z,99.90
2022-08-07T08:54:48.120Z,99.90
2022-08-07T08:57:27.136Z,99.90
2022-08-07T09:00:04.869Z,99.90
2022-08-07T09:02:41.939Z,99.90
2022-08-07T09:05:36.647Z,99.90
2022-08-07T09:08:39.179Z,99.90
2022-08-07T09:11:24.247Z,99.90
2022-08-07T09:14:12.669Z,99.90
2022-08-07T09:16:53.845Z,99.90
2022-08-07T09:19:44.785Z,99.90
2022-08-07T09:24:29.327Z,99.90
2022-08-07T09:25:26.090Z,99.90
2022-08-07T09:28:02.959Z,99.90
2022-08-07T09:30:54.562Z,99.90
2022-08-07T09:33:56.781Z,99.90
2022-08-07T09:36:36.939Z,99.90
2022-08-07T09:39:54.695Z,99.90
2022-08-07T09:42:33.068Z,99.90
2022-08-07T09:47:24.875Z,99.90
2022-08-07T09:48:25.164Z,99.90
2022-08-07T09:51:14.775Z,99.90
2022-08-07T09:54:03.401Z,99.90
2022-08-07T09:57:12.975Z,99.90
2022-08-07T10:00:03.609Z,99.90
2022-08-07T10:04:03.068Z,99.90
2022-08-07T10:06:35.558Z,99.90
2022-08-07T10:09:42.921Z,99.90
2022-08-07T10:12:41.828Z,99.90
2022-08-07T10:15:55.508Z,99.90
2022-08-07T10:18:46.192Z,99.90
2022-08-07T10:22:12.649Z,99.90
2022-08-07T10:24:50.981Z,99.90
2022-08-07T10:27:46.406Z,99.90
2022-08-07T10:30:19.668Z,99.90
2022-08-07T10:33:19.789Z,99.90
2022-08-07T10:36:29.733Z,99.90
2022-08-07T10:39:04.464Z,99.90
2022-08-07T10:41:51.292Z,99.90
2022-08-07T10:44:38.686Z,99.90
2022-08-07T10:47:26.933Z,99.90
2022-08-07T10:50:15.929Z,99.90
2022-08-07T10:52:56.536Z,99.90
2022-08-07T10:55:37.790Z,99.80
2022-08-07T10:58:31.986Z,99.60
2022-08-07T11:01:35.746Z,99.60
2022-08-07T11:04:32.097Z,99.40
2022-08-07T11:07:24.441Z,98.90
2022-08-07T11:10:10.389Z,98.80
2022-08-07T11:12:44.283Z,98.60
2022-08-07T11:15:31.401Z,98.20
2022-08-07T11:18:05.126Z,98.10
2022-08-07T11:20:43.061Z,98.00
2022-08-07T11:23:30.396Z,98.00
2022-08-07T11:26:13.290Z,98.10
2022-08-07T11:28:53.374Z,98.00
2022-08-07T11:31:34.924Z,98.00
2022-08-07T11:34:11.291Z,98.00
2022-08-07T11:36:53.091Z,97.70
2022-08-07T11:40:00.024Z,97.60
2022-08-07T11:42:48.424Z,97.60
2022-08-07T11:45:36.077Z,97.60
2022-08-07T11:48:29.762Z,97.40
2022-08-07T11:51:40.839Z,97.20
2022-08-07T11:54:29.630Z,96.40
2022-08-07T11:57:14.009Z,96.10
2022-08-07T12:00:19.058Z,95.80
2022-08-07T12:03:41.567Z,95.70
2022-08-07T12:06:38.881Z,96.00
2022-08-07T12:09:16.709Z,95.90
2022-08-07T12:12:10.565Z,96.00
2022-08-07T12:15:00.438Z,95.80
2022-08-07T12:17:59.422Z,95.50
2022-08-07T12:20:34.647Z,95.40
2022-08-07T12:24:05.069Z,95.40
2022-08-07T12:26:29.931Z,94.90
2022-08-07T12:29:08.356Z,95.00
2022-08-07T12:32:01.902Z,94.80
2022-08-07T12:34:36.873Z,94.60
2022-08-07T12:37:08.481Z,94.70
2022-08-07T12:39:50.630Z,94.20
2022-08-07T12:42:32.181Z,94.00
2022-08-07T12:45:08.272Z,93.90
2022-08-07T12:47:49.092Z,93.90
2022-08-07T12:50:39.674Z,93.80
2022-08-07T12:54:02.861Z,93.80
2022-08-07T12:56:28.349Z,93.10
2022-08-07T12:58:58.118Z,93.30
2022-08-07T13:01:41.043Z,92.90
2022-08-07T13:04:32.678Z,92.70
2022-08-07T13:08:12.229Z,92.10
2022-08-07T13:10:37.857Z,92.10
2022-08-07T13:13:47.007Z,92.10
2022-08-07T13:16:17.219Z,91.70
2022-08-07T13:19:11.401Z,91.10
2022-08-07T13:22:02.065Z,91.10
2022-08-07T13:24:43.912Z,90.90
2022-08-07T13:28:05.592Z,90.70
2022-08-07T13:30:19.686Z,90.60
2022-08-07T13:34:14.758Z,90.50
2022-08-07T13:36:05.697Z,90.20
2022-08-07T13:38:42.905Z,90.00
2022-08-07T13:41:22.108Z,89.60
2022-08-07T13:43:56.148Z,88.70
2022-08-07T13:46:33.490Z,88.10
2022-08-07T13:49:08.660Z,87.60
2022-08-07T13:52:04.831Z,87.30
2022-08-07T13:54:49.435Z,87.10
2022-08-07T13:57:24.073Z,87.00
2022-08-07T13:59:55.776Z,86.70
2022-08-07T14:02:29.713Z,86.10
2022-08-07T14:05:05.467Z,85.90
2022-08-07T14:08:00.901Z,85.80
2022-08-07T14:10:42.164Z,85.70
2022-08-07T14:13:16.650Z,85.20
2022-08-07T14:15:54.455Z,84.70
2022-08-07T14:18:32.841Z,83.90
2022-08-07T14:21:20.748Z,83.50
2022-08-07T14:24:02.413Z,82.90
2022-08-07T14:26:40.656Z,82.60
2022-08-07T14:30:07.389Z,82.40
2022-08-07T14:32:12.629Z,82.90
2022-08-07T14:34:45.962Z,81.60
2022-08-07T14:37:18.604Z,81.20
2022-08-07T14:40:17.391Z,80.80
2022-08-07T14:43:00.911Z,80.70
2022-08-07T14:45:46.422Z,80.10
2022-08-07T14:48:21.801Z,79.40
2022-08-07T14:51:00.111Z,78.90
2022-08-07T14:56:30.060Z,78.40
2022-08-07T14:59:04.493Z,77.70
2022-08-07T15:04:32.157Z,78.30
2022-08-07T15:07:02.280Z,78.30
2022-08-07T15:09:59.609Z,78.30
2022-08-07T15:12:36.024Z,78.10
2022-08-07T15:15:21.283Z,78.10
2022-08-07T15:17:57.724Z,78.10
2022-08-07T15:25:02.339Z,78.00
2022-08-07T15:26:21.042Z,78.00
2022-08-07T15:32:02.047Z,77.70
2022-08-07T15:34:36.469Z,77.30
2022-08-07T15:37:07.441Z,77.30
2022-08-07T15:42:53.839Z,77.20
2022-08-07T15:45:57.442Z,77.10
2022-08-07T15:48:27.251Z,76.80
2022-08-07T15:51:08.561Z,76.60
2022-08-07T15:53:53.071Z,76.70
2022-08-07T15:56:33.307Z,76.60
2022-08-07T15:59:04.688Z,76.60
2022-08-07T16:01:39.089Z,76.50
2022-08-07T16:04:15.050Z,76.50
2022-08-07T16:06:52.450Z,76.50
2022-08-07T16:09:41.001Z,76.40
2022-08-07T16:12:25.015Z,76.50
2022-08-07T16:15:05.959Z,76.40
2022-08-07T16:18:01.625Z,76.40
2022-08-07T16:20:55.279Z,76.60
2022-08-07T16:24:00.033Z,76.60
2022-08-07T16:26:59.242Z,76.60
2022-08-07T16:30:11.458Z,76.60
2022-08-07T16:32:54.194Z,76.80
2022-08-07T16:35:57.061Z,76.70
2022-08-07T16:39:00.738Z,76.60
2022-08-07T16:41:48.737Z,76.20
2022-08-07T16:45:15.179Z,76.30
2022-08-07T16:48:15.150Z,76.20
2022-08-07T16:51:20.484Z,76.20
2022-08-07T16:54:09.649Z,76.30
2022-08-07T16:56:56.565Z,76.30
2022-08-07T16:59:46.837Z,76.20
2022-08-07T17:03:04.654Z,76.30
2022-08-07T17:06:19.697Z,76.40
2022-08-07T17:09:10.344Z,76.60
2022-08-07T17:12:03.895Z,76.50
2022-08-07T17:14:44.466Z,76.60
2022-08-07T17:17:44.326Z,76.60
2022-08-07T17:20:29.987Z,76.70
2022-08-07T17:23:08.542Z,76.60
2022-08-07T17:26:00.270Z,76.70
2022-08-07T17:28:38.390Z,76.80
2022-08-07T17:31:16.578Z,76.60
2022-08-07T17:34:32.894Z,76.80
2022-08-07T17:36:57.937Z,76.80
2022-08-07T17:39:58.687Z,76.70
2022-08-07T17:42:58.631Z,76.80
2022-08-07T17:45:35.058Z,76.80
2022-08-07T17:48:10.388Z,76.70
2022-08-07T17:50:54.208Z,77.00
2022-08-07T17:54:01.011Z,77.00
2022-08-07T17:56:28.932Z,76.90
2022-08-07T17:59:17.083Z,76.90
2022-08-07T18:01:57.067Z,77.10
2022-08-07T18:04:34.160Z,77.10
2022-08-07T18:07:20.521Z,77.20
2022-08-07T18:10:05.739Z,77.30
2022-08-07T18:12:59.299Z,77.00
2022-08-07T18:15:36.617Z,77.20
2022-08-07T18:18:46.315Z,77.00
2022-08-07T18:21:28.187Z,77.10
2022-08-07T18:24:02.451Z,77.10
2022-08-07T18:27:00.539Z,77.10
2022-08-07T18:30:06.950Z,77.20
2022-08-07T18:33:10.876Z,77.20
2022-08-07T18:35:55.761Z,77.30
2022-08-07T18:38:58.089Z,77.30
2022-08-07T18:41:45.006Z,77.50
2022-08-07T18:44:32.612Z,77.50
2022-08-07T18:47:22.749Z,77.60
2022-08-07T18:50:36.607Z,77.60
2022-08-07T18:53:12.721Z,77.80
2022-08-07T18:55:58.711Z,78.40
2022-08-07T18:58:40.056Z,77.90
2022-08-07T19:02:17.002Z,77.90
2022-08-07T19:04:19.705Z,78.00
2022-08-07T19:07:08.474Z,78.00
2022-08-07T19:09:55.614Z,78.10
2022-08-07T19:12:37.603Z,78.30
2022-08-07T19:16:02.687Z,78.40
2022-08-07T19:18:35.017Z,78.50
2022-08-07T19:21:47.784Z,78.60
2022-08-07T19:24:10.120Z,78.60
2022-08-07T19:27:10.374Z,78.60
2022-08-07T19:31:01.710Z,78.80
2022-08-07T19:32:42.350Z,79.00
2022-08-07T19:35:16.081Z,79.00
2022-08-07T19:37:56.393Z,79.10
2022-08-07T19:40:33.398Z,79.20
2022-08-07T19:43:12.733Z,79.40
2022-08-07T19:46:05.028Z,79.50
2022-08-07T19:48:43.767Z,79.60
2022-08-07T19:51:19.417Z,79.70
2022-08-07T19:54:35.359Z,79.80
2022-08-07T19:57:51.909Z,80.00
2022-08-07T19:59:40.481Z,80.00
2022-08-07T20:02:19.273Z,80.10
2022-08-07T20:04:53.766Z,80.30
2022-08-07T20:07:45.796Z,80.30
2022-08-07T20:10:35.583Z,80.60
2022-08-07T20:13:23.890Z,80.60
2022-08-07T20:15:58.311Z,80.70
2022-08-07T20:18:33.006Z,80.80
2022-08-07T20:21:21.571Z,81.70
2022-08-07T20:23:57.699Z,81.30
2022-08-07T20:26:32.492Z,81.20
2022-08-07T20:29:47.093Z,81.40
2022-08-07T20:32:02.290Z,81.50
2022-08-07T20:34:50.373Z,81.40
2022-08-07T20:37:26.453Z,81.70
2022-08-07T20:40:04.244Z,81.80
2022-08-07T20:42:35.341Z,81.90
2022-08-07T20:45:32.928Z,82.20
2022-08-07T20:47:58.654Z,82.20
2022-08-07T20:50:29.084Z,82.10
2022-08-07T20:52:59.822Z,82.40
2022-08-07T20:55:32.202Z,82.40
2022-08-07T20:58:12.185Z,82.50
2022-08-07T21:00:57.682Z,82.60
2022-08-07T21:03:28.312Z,82.70
2022-08-07T21:06:21.645Z,82.70
2022-08-07T21:09:00.816Z,83.00
2022-08-07T21:11:46.347Z,83.00
2022-08-07T21:14:32.797Z,83.10
2022-08-07T21:18:01.772Z,83.20
2022-08-07T21:20:04.777Z,83.30
2022-08-07T21:22:45.058Z,83.40
2022-08-07T21:25:29.173Z,83.50
2022-08-07T21:28:07.790Z,83.50
2022-08-07T21:30:46.578Z,83.80
2022-08-07T21:33:22.559Z,83.90
2022-08-07T21:36:05.692Z,84.00
2022-08-07T21:38:49.726Z,84.10
2022-08-07T21:41:37.883Z,84.20
2022-08-07T21:44:25.398Z,84.30
2022-08-07T21:47:02.295Z,84.30
2022-08-07T21:50:02.713Z,84.50
2022-08-07T21:52:41.000Z,84.70
2022-08-07T21:55:19.396Z,84.70
2022-08-07T21:58:07.470Z,85.00
2022-08-07T22:00:39.908Z,84.90
2022-08-07T22:03:17.126Z,85.10
2022-08-07T22:05:53.643Z,85.30
2022-08-07T22:08:24.660Z,85.50
2022-08-07T22:11:01.665Z,85.50
2022-08-07T22:13:52.232Z,85.90
2022-08-07T22:16:42.807Z,85.80
2022-08-07T22:19:23.628Z,85.90
2022-08-07T22:22:28.812Z,86.10
2022-08-07T22:25:07.691Z,86.20
2022-08-07T22:28:19.902Z,86.20
2022-08-07T22:30:54.082Z,86.30
2022-08-07T22:33:52.781Z,86.50
2022-08-07T22:36:30.292Z,86.50
2022-08-07T22:39:05.120Z,86.70
2022-08-07T22:42:04.201Z,86.80
2022-08-07T22:44:34.552Z,87.10
2022-08-07T22:47:25.842Z,87.00
2022-08-07T22:50:20.779Z,87.10
2022-08-07T22:53:15.466Z,87.20
2022-08-07T22:55:59.457Z,87.20
2022-08-07T22:59:18.176Z,87.30
2022-08-07T23:02:08.320Z,87.40
2022-08-07T23:06:07.127Z,87.50
2022-08-07T23:07:57.833Z,87.50
2022-08-07T23:10:41.322Z,87.50
2022-08-07T23:14:08.864Z,87.70
2022-08-07T23:16:54.407Z,87.80
2022-08-07T23:20:00.169Z,87.70
2022-08-07T23:22:43.368Z,88.00
2022-08-07T23:25:29.282Z,88.00
2022-08-07T23:28:21.522Z,88.20
2022-08-07T23:31:42.723Z,88.40
2022-08-07T23:34:39.667Z,88.40
2022-08-07T23:37:29.655Z,88.50
2022-08-07T23:40:11.521Z,88.60
2022-08-07T23:42:55.591Z,88.70
2022-08-07T23:46:01.595Z,88.90
2022-08-07T23:48:36.883Z,88.80
2022-08-07T23:52:53.504Z,89.00
2022-08-07T23:54:05.167Z,89.00
2022-08-07T23:56:54.175Z,89.10
